Crooked Creek Research Lab Weather observations

Data are for 10 minute period ending at time listed.
 Day   Time    Ave.   Ave.  Ave.  Vector   Max.   Stn.    Total    Solar   Ave.   Snow 
  of    of     Air    Rel.  Wind   Wind    Wind   Baro.  Precip.   Rad.    Soil   Depth
Year   Day     Temp.  Hum.  Speed  Dir.    Gust   Pres.                    Temp.       
2016   (PST)    F      %     mph   deg.    mph     mb.     in.     W/m2     F      in. 
---------------------------------------------------------------------------------------  
 145    1:20   25.8    99    6.4   242     13.4   685.0    0.00       0    999.0    85.4
 145    1:30   25.7    98    6.4   250     11.0   685.0    0.00       0    999.0    94.5
 145    1:40   25.6    99    4.5   240     13.4   685.0    0.00       0    999.0    94.5
 145    1:50   25.4    99    2.3   144      5.8   685.0    0.00       0    999.0    94.5
 145    2:00   25.3    99    2.3    91      4.7   685.1    0.00       0    999.0    94.5
 145    2:10   25.3    99    1.9   154      4.5   685.1    0.00       0    999.0    45.0
 145    2:20   25.3    99    3.7   125      8.0   684.9    0.00       0    999.0    65.5
 145    2:30   24.9    99    1.2   138      2.6   684.9    0.00       0    999.0    94.5
 145    2:40   24.7    99    4.3   324     12.1   684.6    0.00       0    999.0    85.2
 145    2:50   24.4    99    5.7   319     12.0   684.6    0.00       0    999.0    65.3
 145    3:00   24.2    99    4.7    17      9.3   684.3    0.00       0    999.0    94.5
 145    3:10   24.2    99    4.8    11     12.1   684.7    0.00       0    999.0    84.5
 145    3:20   24.4    99    4.5   355      9.1   684.3    0.00       0    999.0     8.6
 145    3:30   24.3    99    2.0     9      4.5   684.6    0.00       0    999.0     0.1
 145    3:40   23.2    98    3.1   130      5.2   684.6    0.00       0    999.0    -0.4
 145    3:50   22.2    98    2.8   210      9.1   684.7    0.00       0    999.0    -0.5
 145    4:00   23.0    99    5.9   223     12.1   684.6    0.00       0    999.0    84.5
 145    4:10   22.6    98    2.1   277      4.6   684.6    0.00       0    999.0     8.6
 145    4:20   22.1    98    1.3   199      3.7   684.6    0.00       0    999.0    -0.5
 145    4:30   22.2    99    0.8   150      2.7   684.7    0.00       0    999.0    -0.7
 145    4:40   21.9    98    2.2   221      5.8   684.6    0.00       1    999.0    -0.7
 145    4:50   21.8    98    1.5   167      3.4   684.8    0.00       1    999.0    36.2
 145    5:00   21.4    98    0.9   111      2.6   684.5    0.00       2    999.0    -1.3
 145    5:10   20.3    97    1.4   129      3.5   684.4    0.00       2    999.0     8.4
 145    5:20   19.6    97    2.2   164      4.2   685.0    0.00       3    999.0    56.0
 145    5:30   19.2    97    2.4   192      4.2   684.8    0.00       4    999.0    64.8
 145    5:40   18.5    97    1.1   135      3.6   684.8    0.00       5    999.0     7.2
 145    5:50   18.5    97    1.4   135      2.3   684.4    0.00       6    999.0    36.6
 145    6:00   19.1    98    2.0    83      9.6   684.9    0.00       7    999.0    74.7
 145    6:10   21.5    98    2.8   266      7.1   685.0    0.00      11    999.0    74.4
 145    6:20   22.3    97    2.8   270      8.7   685.1    0.00      30    999.0    -1.3
 145    6:30   24.5    94    2.7   277      8.1   685.3    0.00      33    999.0     8.2
 145    6:40   24.3    95    0.9   339      3.4   685.2    0.00      37    999.0    36.8
 145    6:50   25.5    91    4.4   236     12.1   685.3    0.00      45    999.0    16.8
 145    7:00   26.2    86    4.4   220     10.4   685.6    0.00      63    999.0    17.8
 145    7:10   27.5    82    5.1   248     13.9   685.3    0.00      79    999.0    74.3
 145    7:20   28.0    79    6.4   244     11.5   685.7    0.00     100    999.0    26.9
 145    7:30   28.6    78    5.5   257     14.7   685.7    0.00     103    999.0    16.5
 145    7:40   29.4    75    5.0   272     12.7   685.7    0.00     121    999.0    -1.1
 145    7:50   29.5    74    7.2   249     13.8   686.0    0.00     110    999.0    -1.3
 145    8:00   29.2    74    7.7   248     13.5   685.9    0.00     178    999.0    -1.2
 145    8:10   30.1    73    7.4   248     12.7   686.0    0.00     256    999.0    -1.2
 145    8:20   31.0    71    6.2   258     12.2   686.0    0.00     342    999.0    -1.0
 145    8:30   31.8    69    5.7   258     12.1   686.6    0.03     421    999.0    -1.1
 145    8:40   32.1    68    6.3   260     13.4   685.9    0.08     475    999.0    -0.9
 145    8:50   32.1    70    6.7   268     13.7   686.6    0.08     501    999.0    -0.8
 145    9:00   32.7    70    5.9   269     11.3   686.6    0.08     464    999.0    -0.8
 145    9:10   32.5    73    6.8   253     11.0   686.9    0.00     745    999.0    -0.7
 145    9:20   31.8    75    7.6   238     16.4   686.5    0.00     615    999.0    -0.6
 145    9:30   31.6    73    7.5   253     15.9   686.8    0.00     367    999.0    -0.4
 145    9:40   30.5    74    7.8   245     13.6   687.1    0.00     319    999.0    -0.4
 145    9:50   31.6    68    6.7   259     11.0   687.1    0.00     509    999.0    -0.3
 145   10:00   32.9    64    5.6   263     12.3   687.0    0.00     633    999.0    -0.6
 145   10:10   33.0    64    6.7   253     13.2   687.2    0.00     510    999.0    -0.5
 145   10:20   33.2    63    6.4   239     11.2   686.7    0.00     891    999.0    -0.7
 145   10:30   34.2    63    5.5   234     10.8   687.2    0.00     916    999.0    -0.8
 145   10:40   34.3    61    5.1   215     11.4   686.9    0.00     946    999.0    -0.8
 145   10:50   34.4    64    5.7   221     12.9   686.6    0.00     997    999.0    -0.6
 145   11:00   35.6    63    5.3   252     13.1   687.3    0.00     922    999.0    -0.7
 145   11:10   35.8    61    4.8   247     12.6   687.5    0.00    1059    999.0    -0.7
 145   11:20   36.2    61    6.4   236     14.6   687.3    0.00    1163    999.0    -0.7
 145   11:30   35.6    62    8.1   236     13.4   687.6    0.00    1193    999.0    -0.5
 145   11:40   35.4    60    5.8   234     12.5   687.7    0.00     838    999.0    -0.7
 145   11:50   35.9    62    6.9   230     14.3   687.6    0.00    1172    999.0    -0.5
 145   12:00   36.9    60    7.3   236     15.1   687.2    0.00    1233    999.0    -0.6
 145   12:10   36.4    61    6.8   240     15.1   687.6    0.00     807    999.0    -0.7
 145   12:20   36.0    64    6.7   256     15.5   687.5    0.00     622    999.0    -0.5
 145   12:30   35.9    63    6.9   250     15.9   687.0    0.00     547    999.0    -0.6
 145   12:40   35.4    60    6.2   249     13.4   687.3    0.00     459    999.0    -0.6
 145   12:50   37.2    60    8.4   244     17.3   687.4    0.00    1092    999.0    -0.4
 145   13:00   37.2    57    7.5   232     14.7   687.7    0.00     933    999.0    -0.6
 145   13:10   38.3    54    6.8   238     17.7   687.3    0.00    1114    999.0    -0.6
 145   13:20   39.2    51    6.4   244     13.5   688.1    0.00    1043    999.0    -0.6
 145   13:30   39.0    50    7.5   242     15.6   688.3    0.00    1034    999.0    -0.5
 145   13:40   38.0    54    8.6   240     16.5   688.1    0.00     550    999.0    -0.7
 145   13:50   36.7    55    6.9   256     12.3   688.3    0.00     383    999.0    -0.5
 145   14:00   37.4    51    6.7   231     13.7   688.1    0.00     842    999.0    -0.6
 145   14:10   38.8    51    8.8   253     16.6   688.4    0.00    1048    999.0    -0.5
 145   14:20   39.5    50    7.1   257     15.5   688.3    0.00    1014    999.0    -0.5
 145   14:30   39.6    51    7.3   237     18.4   688.3    0.00     836    999.0    -0.6
 145   14:40   37.3    57    7.1   240     16.9   688.2    0.00     244    999.0    -0.6
 145   14:50   36.4    59    7.1   267     11.0   688.1    0.00     238    999.0    -0.5
 145   15:00   37.0    57    4.5   238      9.6   688.3    0.00     595    999.0    -0.4
 145   15:10   39.6    55    7.4   249     13.4   688.4    0.00     875    999.0    -0.6
 145   15:20   39.2    57    7.8   267     13.6   688.6    0.00     795    999.0    -0.5
 145   15:30   39.4    56    5.8   270     12.6   688.4    0.00     543    999.0    -0.6
 145   15:40   37.2    59    5.6   258     11.2   688.6    0.00     236    999.0    -0.4
 145   15:50   36.7    57    3.2   248     10.7   688.4    0.00     283    999.0    -0.5
 145   16:00   37.5    56    3.9   250     15.5   688.6    0.00     300    999.0    -0.5
 145   16:10   37.8    56    4.6   250     11.6   688.4    0.00     414    999.0    -0.5
 145   16:20   38.9    67    4.6   136     13.7   688.4    0.00     564    999.0    -0.6
 145   16:30   36.6    73    3.3   130      8.7   688.8    0.00     320    999.0    -0.6
 145   16:40   34.3    80    3.0    54      7.6   688.4    0.00     168    999.0    -0.6
 145   16:50   33.9    82    5.3    48     12.1   688.9    0.00     230    999.0    -0.4
 145   17:00   33.9    83    2.8    88      5.6   688.8    0.00     123    999.0    -0.5
 145   17:10   32.6    86    3.2    71      8.0   688.6    0.00      56    999.0    -0.4
 145   17:20   31.6    90    2.8   109     10.7   688.5    0.00      48    999.0    -0.3
 145   17:30   31.4    92    4.5   119     11.8   688.6    0.00      46    999.0    -0.2
 145   17:40   31.0    88    5.2   114     10.7   688.8    0.00      30    999.0    -0.2
 145   17:50   30.5    91    3.1   124      8.0   688.8    0.00      19    999.0    -0.1
 145   18:00   30.6    91    4.3   344     10.2   688.8    0.00      25    999.0    -0.2
 145   18:10   29.6    95    6.8   125     12.7   688.5    0.00      18    999.0    -0.3
 145   18:20   29.5    95    6.1   135     11.6   688.4    0.00       6    999.0    -0.3
 145   18:30   29.5    96    3.7   310     11.5   688.9    0.00       4    999.0    25.3
 145   18:40   29.3    97    0.8   255      2.2   688.7    0.00       3    999.0    -0.4
 145   18:50   29.3    98    2.8   242      5.5   688.8    0.00       1    999.0    59.9
 145   19:00   28.9    98    2.1   169      5.2   688.9    0.00       0    999.0    44.3
 145   19:10   28.7    98    2.1   240      5.0   689.2    0.00       0    999.0    -0.6
 145   19:20   28.3    98    0.9   227      3.7   688.8    0.00       0    999.0    -0.6
 145   19:30   28.5    99    0.9   241      5.5   689.0    0.00       0    999.0    -0.6
 145   19:40   28.6    99    0.5   353      2.3   689.3    0.00       0    999.0    -0.6
 145   19:50   28.6    98    2.8   117      5.0   689.3    0.00       0    999.0    -0.6
 145   20:00   28.5    97    2.6   121      5.8   689.3    0.00       0    999.0    -0.6
 145   20:10   28.4    97    1.4   121      4.1   689.5    0.00       0    999.0    -0.6
 145   20:20   28.2    97    1.7   127      3.9   689.5    0.00       0    999.0    -0.6
 145   20:30   28.1    98    1.5   112      3.8   689.5    0.00       0    999.0    -0.6
 145   20:40   28.1    99    0.6   129      2.1   689.4    0.00       0    999.0    -0.6
 145   20:50   28.0    99    1.8   355      3.1   689.9    0.00       0    999.0    13.9
 145   21:00   28.0    99    0.9    18      2.4   689.6    0.00       0    999.0    -0.6
 145   21:10   28.2   100    1.0     8      2.1   689.8    0.00       0    999.0    -0.6
 145   21:20   28.3   100    0.5    17      1.5   689.8    0.00       0    999.0    -0.6
 145   21:30   28.3   100    1.6   347      2.6   689.8    0.00       0    999.0    -0.7
 145   21:40   28.1   100    2.3   346      3.6   689.7    0.00       0    999.0    -0.8
 145   21:50   28.0   100    0.8   352      2.4   690.0    0.00       0    999.0    -0.9
 145   22:00   27.9   100    1.2   354      2.8   689.7    0.00       0    999.0    -1.0
 145   22:10   27.9   100    1.7     6      3.4   689.8    0.00       0    999.0    -1.2
 145   22:20   27.9   100    1.3    77      2.7   689.8    0.00       0    999.0    -0.9
 145   22:30   28.2   100    0.8    49      3.3   690.0    0.00       0    999.0    -0.7
 145   22:40   28.2   100    1.3    46      4.3   689.8    0.00       0    999.0    -0.6
 145   22:50   28.3    99    2.5    39      4.4   690.0    0.00       0    999.0    -0.6
 145   23:00   28.3   100    3.3    39      5.8   689.8    0.00       0    999.0    -0.7
 145   23:10   28.2   100    3.3    43      6.4   689.5    0.00       0    999.0    -0.6
 145   23:20   28.1    99    3.1    48      6.3   689.6    0.00       0    999.0    -0.7
 145   23:30   28.0    99    3.1    42      5.1   689.7    0.00       0    999.0    -0.7
 145   23:40   27.5    99    1.6    40      5.6   689.8    0.00       0    999.0    -0.7
 145   23:50   27.4    99    1.8    59      4.2   689.8    0.00       0    999.0    -0.7
 146    0:00   27.2    99    0.4    65      2.6   689.5    0.00       0    999.0    -0.9
 146    0:10   26.7    99    0.2    65      2.3   689.5    0.00       0    999.0    -1.1
 146    0:20   26.8   100    1.3    79      4.0   689.7    0.00       0    999.0    -1.2
 146    0:30   26.9    99    2.3    82      3.7   689.2    0.00       0    999.0    16.1
 146    0:40   26.8    98    1.7    78      3.1   689.2    0.00       0    999.0    -1.7
 146    0:50   26.7    98    1.7    70      3.4   689.4    0.00       0    999.0    -1.8
 146    1:00   26.9    98    1.4    86      3.1   689.2    0.00       0    999.0    -1.9
 146    1:10   26.4    97    0.2    58      1.4   689.2    0.00       0    999.0    -1.9

Return to Crooked Creek Research Lab graphs page.


Western Regional Climate Center,wrcc@dri.edu